Time;durP1;ratioP1;P1;durP2;ratioP2;P2;SDS_P1;SDS_P2;PMS_P1;PMS_P2;Temp;Humidity;BMP_temperature;BMP_pressure;BME280_temperature;BME280_humidity;BME280_pressure;Samples;Min_cycle;Max_cycle;Signal;HPM_P1;HPM_P2
2021/12/31 00:00:17;;;;;;;13.88;3.35;;;11.90;99.90;;;;;;5036372;28;20040;-67
2021/12/31 00:02:43;;;;;;;10.70;2.95;;;11.80;99.90;;;;;;5036550;28;20050;-66
2021/12/31 00:05:09;;;;;;;13.18;2.83;;;11.80;99.90;;;;;;5030612;28;20033;-66
2021/12/31 00:07:35;;;;;;;7.68;2.83;;;11.90;99.90;;;;;;5033916;28;20045;-65
2021/12/31 00:10:01;;;;;;;14.57;2.90;;;11.90;99.90;;;;;;5044137;28;20076;-67
2021/12/31 00:12:28;;;;;;;10.27;2.67;;;11.90;99.90;;;;;;5037193;28;20037;-66
2021/12/31 00:14:54;;;;;;;8.90;2.25;;;11.90;99.90;;;;;;5044132;28;20048;-67
2021/12/31 00:17:20;;;;;;;14.25;2.40;;;12.00;99.90;;;;;;5036404;28;20473;-66
2021/12/31 00:19:47;;;;;;;10.02;2.78;;;11.90;99.90;;;;;;5024250;28;20045;-67
2021/12/31 00:24:59;;;;;;;9.82;3.15;;;11.90;99.90;;;;;;5005937;28;20046;-68
2021/12/31 00:27:25;;;;;;;13.43;3.20;;;11.90;99.90;;;;;;5027955;28;20041;-66
2021/12/31 00:29:50;;;;;;;9.88;2.42;;;11.90;99.90;;;;;;5034347;28;20047;-68
2021/12/31 00:32:18;;;;;;;10.68;2.83;;;11.90;99.90;;;;;;5030763;28;20041;-68
2021/12/31 00:34:44;;;;;;;12.27;2.75;;;11.90;99.90;;;;;;5048165;28;20043;-67
2021/12/31 00:37:09;;;;;;;11.77;3.05;;;11.90;99.90;;;;;;5041235;28;20570;-69
2021/12/31 00:39:35;;;;;;;11.20;2.78;;;11.90;99.90;;;;;;5040242;28;20115;-67
2021/12/31 00:42:00;;;;;;;13.45;2.72;;;11.90;99.90;;;;;;5031319;28;20041;-65
2021/12/31 00:44:26;;;;;;;13.48;2.97;;;11.90;99.90;;;;;;5035645;28;20038;-66
2021/12/31 00:46:51;;;;;;;9.70;2.50;;;11.90;99.90;;;;;;5036581;28;20037;-66
2021/12/31 00:49:17;;;;;;;12.43;3.58;;;11.90;99.90;;;;;;5046498;28;20049;-66
2021/12/31 00:51:42;;;;;;;10.38;2.90;;;11.90;99.90;;;;;;5033020;28;20055;-67
2021/12/31 00:54:08;;;;;;;12.50;3.67;;;12.00;99.90;;;;;;5030874;28;20081;-66
2021/12/31 00:56:34;;;;;;;9.27;3.17;;;11.90;99.90;;;;;;5048059;28;20133;-67
2021/12/31 00:59:00;;;;;;;12.45;2.45;;;11.90;99.90;;;;;;5021892;28;20034;-67
2021/12/31 01:01:26;;;;;;;11.07;3.13;;;11.90;99.90;;;;;;5031012;28;20095;-65
2021/12/31 01:03:52;;;;;;;14.68;3.05;;;11.90;99.90;;;;;;5035740;28;20111;-66
2021/12/31 01:06:18;;;;;;;10.82;3.38;;;11.90;99.90;;;;;;5038854;28;20151;-66
2021/12/31 01:08:44;;;;;;;10.90;3.28;;;11.90;99.90;;;;;;5030332;28;20123;-67
2021/12/31 01:11:10;;;;;;;10.82;2.90;;;11.90;99.90;;;;;;5032515;28;20084;-67
2021/12/31 01:14:01;;;;;;;13.32;3.67;;;12.00;99.90;;;;;;5030831;28;20049;-64
2021/12/31 01:16:27;;;;;;;9.38;2.95;;;12.00;99.90;;;;;;5033605;28;20045;-66
2021/12/31 01:21:22;;;;;;;12.73;3.25;;;12.00;99.90;;;;;;5031419;28;20064;-66
2021/12/31 01:23:49;;;;;;;12.45;3.55;;;12.10;99.90;;;;;;5041454;28;20428;-65
2021/12/31 01:26:15;;;;;;;14.05;3.70;;;12.00;99.90;;;;;;5037994;28;20585;-66
2021/12/31 01:28:41;;;;;;;15.95;3.90;;;12.00;99.90;;;;;;5033397;28;20032;-67
2021/12/31 01:31:06;;;;;;;11.90;3.70;;;12.00;99.90;;;;;;5050481;28;20045;-67
2021/12/31 01:33:32;;;;;;;11.90;3.40;;;12.10;99.90;;;;;;5038626;28;20124;-67
2021/12/31 01:35:58;;;;;;;14.75;4.05;;;12.00;99.90;;;;;;5014170;28;20052;-67
2021/12/31 01:38:24;;;;;;;11.75;3.70;;;12.00;99.90;;;;;;5029988;28;20037;-67
2021/12/31 01:40:50;;;;;;;15.13;3.88;;;12.10;99.90;;;;;;5023014;28;20047;-68
2021/12/31 01:43:17;;;;;;;9.65;3.72;;;12.10;99.90;;;;;;5038497;28;20048;-68
2021/12/31 01:45:47;;;;;;;9.98;3.42;;;12.10;99.90;;;;;;5030966;28;20043;-66
2021/12/31 01:50:52;;;;;;;11.23;3.30;;;12.10;99.90;;;;;;5030408;28;20389;-66
2021/12/31 01:53:21;;;;;;;14.30;3.50;;;12.10;99.90;;;;;;5028717;28;20063;-66
2021/12/31 01:55:50;;;;;;;10.67;3.20;;;12.10;99.90;;;;;;5014066;28;20046;-66
2021/12/31 01:58:20;;;;;;;10.75;3.67;;;12.10;99.90;;;;;;5034906;28;20125;-65
2021/12/31 02:00:47;;;;;;;12.93;3.40;;;12.10;99.90;;;;;;5043216;28;20041;-67
2021/12/31 02:03:12;;;;;;;13.18;3.40;;;12.10;99.90;;;;;;5044473;28;20037;-66
2021/12/31 02:05:38;;;;;;;12.75;3.60;;;12.10;99.90;;;;;;5029245;28;20041;-67
2021/12/31 02:08:05;;;;;;;14.20;3.75;;;12.10;99.90;;;;;;5028808;28;20033;-67
2021/12/31 02:10:30;;;;;;;12.15;3.20;;;12.10;99.90;;;;;;5030316;28;20037;-65
2021/12/31 02:12:57;;;;;;;9.85;3.67;;;12.20;99.90;;;;;;5027679;28;20072;-67
2021/12/31 02:15:22;;;;;;;13.70;3.50;;;12.10;99.90;;;;;;5028437;28;20128;-66
2021/12/31 02:17:48;;;;;;;11.50;3.35;;;12.20;99.90;;;;;;5039179;28;20075;-66
2021/12/31 02:20:19;;;;;;;14.45;3.28;;;12.20;99.90;;;;;;5029038;28;20073;-66
2021/12/31 02:22:54;;;;;;;10.55;3.15;;;12.20;99.90;;;;;;5031967;28;20099;-65
2021/12/31 02:25:22;;;;;;;12.38;3.88;;;12.20;99.90;;;;;;5034966;28;20045;-66
2021/12/31 02:27:48;;;;;;;15.85;2.90;;;12.20;99.90;;;;;;5028674;28;20463;-66
2021/12/31 02:30:14;;;;;;;11.23;3.50;;;12.20;99.90;;;;;;5028791;28;20045;-67
2021/12/31 02:32:39;;;;;;;8.82;2.90;;;12.20;99.90;;;;;;5027832;28;20124;-67
2021/12/31 02:35:07;;;;;;;11.68;3.40;;;12.20;99.90;;;;;;5040016;28;20128;-67
2021/12/31 02:37:33;;;;;;;11.85;3.88;;;12.30;99.90;;;;;;5043293;28;20080;-67
2021/12/31 02:40:03;;;;;;;14.43;3.92;;;12.40;99.90;;;;;;5029694;28;20071;-67
2021/12/31 02:42:28;;;;;;;9.45;3.60;;;12.40;99.90;;;;;;5044747;28;20056;-66
2021/12/31 02:44:56;;;;;;;7.85;3.10;;;12.30;99.90;;;;;;5028626;28;20037;-66
2021/12/31 02:47:21;;;;;;;9.38;3.40;;;12.40;99.90;;;;;;5027706;28;20037;-66
2021/12/31 02:49:48;;;;;;;10.80;3.35;;;12.50;99.90;;;;;;5042516;28;20214;-66
2021/12/31 02:52:15;;;;;;;10.13;3.55;;;12.50;99.90;;;;;;5031414;28;20037;-66
2021/12/31 02:54:45;;;;;;;7.55;3.13;;;12.50;99.90;;;;;;5034456;28;20041;-66
2021/12/31 02:57:12;;;;;;;10.10;3.85;;;12.50;99.90;;;;;;5028177;28;20083;-67
2021/12/31 02:59:38;;;;;;;10.68;3.67;;;12.60;99.90;;;;;;5029944;28;20033;-66
2021/12/31 03:02:06;;;;;;;12.88;3.83;;;12.60;99.90;;;;;;5035636;28;20044;-67
2021/12/31 03:04:34;;;;;;;9.05;4.10;;;12.50;99.90;;;;;;5034983;28;20036;-67
2021/12/31 03:07:03;;;;;;;10.32;3.85;;;12.70;99.90;;;;;;5029526;28;20437;-66
2021/12/31 03:09:29;;;;;;;10.18;3.80;;;12.60;99.90;;;;;;5056438;28;20459;-66
2021/12/31 03:11:56;;;;;;;7.85;4.32;;;12.60;99.90;;;;;;5027698;28;20042;-66
2021/12/31 03:14:23;;;;;;;9.90;3.72;;;12.60;99.90;;;;;;5040580;28;20416;-70
2021/12/31 03:16:49;;;;;;;7.82;4.20;;;12.60;99.90;;;;;;5033142;28;20049;-67
2021/12/31 03:19:15;;;;;;;7.47;3.70;;;12.70;99.90;;;;;;5027981;28;20041;-68
2021/12/31 03:21:41;;;;;;;10.88;4.65;;;12.70;99.90;;;;;;5028903;28;20418;-67
2021/12/31 03:24:06;;;;;;;9.00;4.68;;;12.60;99.90;;;;;;5038377;28;20132;-68
2021/12/31 03:26:34;;;;;;;9.48;4.68;;;12.80;99.90;;;;;;5033322;28;20382;-68
2021/12/31 03:29:00;;;;;;;9.43;4.78;;;12.60;99.90;;;;;;5028276;28;20048;-67
2021/12/31 03:31:26;;;;;;;8.75;4.32;;;12.60;99.90;;;;;;5047804;28;20076;-67
2021/12/31 03:33:51;;;;;;;14.05;5.25;;;12.70;99.90;;;;;;5033891;28;20083;-67
2021/12/31 03:36:17;;;;;;;8.13;4.35;;;12.60;99.90;;;;;;5018519;28;20054;-68
2021/12/31 03:38:42;;;;;;;9.40;5.32;;;12.60;99.90;;;;;;5032469;28;20091;-66
2021/12/31 03:41:08;;;;;;;10.38;4.90;;;12.60;99.90;;;;;;5032514;28;20527;-67
2021/12/31 03:43:34;;;;;;;10.48;4.45;;;12.70;99.90;;;;;;5031457;28;20042;-67
2021/12/31 03:45:59;;;;;;;9.18;5.10;;;12.70;99.90;;;;;;5042303;28;20048;-66
2021/12/31 03:48:25;;;;;;;9.90;5.30;;;12.70;99.90;;;;;;5031259;28;20044;-68
2021/12/31 03:50:51;;;;;;;8.60;5.50;;;12.70;99.90;;;;;;5048889;28;20415;-67
2021/12/31 03:53:17;;;;;;;7.70;4.47;;;12.70;99.90;;;;;;5035806;28;20404;-68
2021/12/31 03:55:43;;;;;;;12.55;4.68;;;12.80;99.90;;;;;;5028288;28;20124;-67
2021/12/31 03:58:08;;;;;;;9.63;4.65;;;12.80;99.90;;;;;;5047466;28;20127;-67
2021/12/31 04:00:34;;;;;;;7.60;4.38;;;12.80;99.90;;;;;;5034091;28;20041;-68
2021/12/31 04:03:07;;;;;;;8.15;4.22;;;12.70;99.90;;;;;;5042646;28;20473;-69
2021/12/31 04:05:33;;;;;;;9.45;4.18;;;12.80;99.90;;;;;;5025986;28;20037;-67
2021/12/31 04:07:59;;;;;;;8.10;3.70;;;12.80;99.90;;;;;;5032120;28;20037;-67
2021/12/31 04:10:25;;;;;;;7.63;3.78;;;12.80;99.90;;;;;;5044776;28;20043;-67
2021/12/31 04:12:52;;;;;;;8.45;4.00;;;12.80;99.90;;;;;;5038985;28;20061;-67
2021/12/31 04:15:18;;;;;;;8.38;4.10;;;12.90;99.90;;;;;;5045882;28;20045;-67
2021/12/31 04:17:43;;;;;;;7.20;4.00;;;12.90;99.90;;;;;;5047365;28;20040;-67
2021/12/31 04:20:18;;;;;;;6.35;4.05;;;12.90;99.90;;;;;;5020024;28;20504;-66
2021/12/31 04:22:51;;;;;;;8.52;4.38;;;12.90;99.90;;;;;;5025005;28;20056;-66
2021/12/31 04:25:17;;;;;;;11.30;4.28;;;12.90;99.90;;;;;;5015838;28;20136;-67
2021/12/31 04:27:42;;;;;;;9.20;3.83;;;12.90;99.90;;;;;;5031299;28;20172;-67
2021/12/31 04:30:08;;;;;;;8.27;4.20;;;12.90;99.90;;;;;;5046211;28;20061;-66
2021/12/31 04:32:34;;;;;;;10.23;4.30;;;13.00;99.90;;;;;;5015266;28;20033;-67
2021/12/31 04:34:59;;;;;;;9.77;4.45;;;13.10;99.90;;;;;;5034360;28;20051;-67
2021/12/31 04:37:25;;;;;;;11.52;4.82;;;13.00;99.90;;;;;;5037523;28;20065;-67
2021/12/31 04:39:51;;;;;;;8.40;4.35;;;13.10;99.90;;;;;;5032400;28;20100;-68
2021/12/31 04:42:17;;;;;;;11.60;4.53;;;13.10;99.90;;;;;;5047728;28;20110;-67
2021/12/31 04:44:42;;;;;;;9.73;4.97;;;13.10;99.90;;;;;;5041158;28;20124;-68
2021/12/31 04:47:08;;;;;;;8.95;4.90;;;13.10;99.90;;;;;;5030153;28;20370;-67
2021/12/31 04:49:33;;;;;;;8.57;5.00;;;13.10;99.90;;;;;;5029854;28;20045;-67
2021/12/31 04:51:59;;;;;;;9.82;5.07;;;13.10;99.90;;;;;;5047965;28;20032;-68
2021/12/31 04:54:25;;;;;;;12.35;5.43;;;13.10;99.90;;;;;;5036342;28;20045;-67
2021/12/31 04:56:53;;;;;;;10.75;4.95;;;13.10;99.90;;;;;;5030966;28;20072;-67
2021/12/31 04:59:20;;;;;;;9.30;4.97;;;13.10;99.90;;;;;;5037703;28;20121;-66
2021/12/31 05:01:47;;;;;;;9.95;4.85;;;13.00;99.90;;;;;;5031829;28;20065;-68
2021/12/31 05:04:14;;;;;;;38.70;7.10;;;13.00;99.90;;;;;;5035297;28;20437;-68
2021/12/31 05:06:40;;;;;;;6.60;5.18;;;13.10;99.90;;;;;;5032767;28;20045;-68
2021/12/31 05:09:06;;;;;;;8.13;5.03;;;13.10;99.90;;;;;;5014043;28;20042;-67
2021/12/31 05:11:32;;;;;;;9.50;5.07;;;13.10;99.90;;;;;;5032462;28;20044;-67
2021/12/31 05:13:57;;;;;;;11.25;4.82;;;13.00;99.90;;;;;;5041292;28;20197;-68
2021/12/31 05:16:23;;;;;;;10.25;5.07;;;13.10;99.90;;;;;;5046562;28;20036;-68
2021/12/31 05:18:48;;;;;;;7.95;4.40;;;13.10;99.90;;;;;;5011969;28;20393;-67
2021/12/31 05:21:14;;;;;;;11.82;4.53;;;13.10;99.90;;;;;;5050636;28;20037;-66
2021/12/31 05:23:40;;;;;;;7.50;4.28;;;13.10;99.90;;;;;;5033218;28;20078;-69
2021/12/31 05:26:05;;;;;;;9.40;4.20;;;13.00;99.90;;;;;;5016660;28;20103;-67
2021/12/31 05:28:32;;;;;;;7.78;4.28;;;13.10;99.90;;;;;;5029258;28;20213;-68
2021/12/31 05:30:58;;;;;;;7.53;3.60;;;13.10;99.90;;;;;;5036248;28;20091;-66
2021/12/31 05:33:24;;;;;;;6.13;3.83;;;13.20;99.90;;;;;;5029475;28;20382;-68
2021/12/31 05:35:50;;;;;;;8.23;4.03;;;13.20;99.90;;;;;;5039416;28;20132;-67
2021/12/31 05:38:15;;;;;;;5.18;3.97;;;13.20;99.90;;;;;;5041709;28;20056;-68
2021/12/31 05:40:41;;;;;;;6.97;4.05;;;13.10;99.90;;;;;;5044591;28;20033;-66
2021/12/31 05:43:06;;;;;;;6.05;3.65;;;13.10;99.90;;;;;;5049064;28;21886;-67
2021/12/31 05:45:32;;;;;;;7.65;3.60;;;13.20;99.90;;;;;;5036437;28;20041;-67
2021/12/31 05:47:58;;;;;;;4.63;2.60;;;13.10;99.90;;;;;;5029063;28;20180;-67
2021/12/31 05:50:29;;;;;;;7.22;3.60;;;13.10;99.90;;;;;;5032748;28;20845;-68
2021/12/31 05:53:00;;;;;;;6.25;3.03;;;13.00;99.90;;;;;;5040556;28;20056;-67
2021/12/31 05:55:26;;;;;;;6.72;2.70;;;13.10;99.90;;;;;;5033516;28;20045;-69
2021/12/31 05:57:54;;;;;;;8.13;3.70;;;13.00;99.90;;;;;;5036262;28;20041;-66
2021/12/31 06:00:20;;;;;;;9.65;3.33;;;13.00;99.90;;;;;;5033860;28;20099;-67
2021/12/31 06:02:46;;;;;;;7.57;3.50;;;12.90;99.90;;;;;;5034577;28;20048;-66
2021/12/31 06:05:12;;;;;;;5.80;3.03;;;13.00;99.90;;;;;;5038570;28;20037;-68
2021/12/31 06:07:37;;;;;;;5.55;2.72;;;13.00;99.90;;;;;;5033830;28;20033;-66
2021/12/31 06:10:03;;;;;;;6.10;3.00;;;13.10;99.90;;;;;;5029569;28;20132;-68
2021/12/31 06:12:28;;;;;;;5.53;2.65;;;13.10;99.90;;;;;;5025198;28;20037;-65
2021/12/31 06:14:58;;;;;;;6.95;2.53;;;13.10;99.90;;;;;;5034311;28;20036;-67
2021/12/31 06:17:26;;;;;;;4.15;2.47;;;13.10;99.90;;;;;;5031631;28;20037;-66
2021/12/31 06:19:53;;;;;;;5.70;2.70;;;12.90;99.90;;;;;;5032145;28;20069;-67
2021/12/31 06:22:22;;;;;;;6.50;2.90;;;12.90;99.90;;;;;;5040383;28;20119;-68
2021/12/31 06:24:48;;;;;;;8.85;2.78;;;12.90;99.90;;;;;;5029504;28;20068;-67
2021/12/31 06:27:14;;;;;;;3.97;2.10;;;12.80;99.90;;;;;;5014105;28;20037;-68
2021/12/31 06:29:39;;;;;;;5.50;2.40;;;12.80;99.90;;;;;;5029066;28;20041;-67
2021/12/31 06:32:05;;;;;;;3.78;2.25;;;12.90;99.90;;;;;;5039234;28;20103;-68
2021/12/31 06:34:31;;;;;;;5.93;2.10;;;13.00;99.90;;;;;;5034764;28;20392;-66
2021/12/31 06:36:56;;;;;;;7.22;2.25;;;12.90;99.90;;;;;;5019416;28;20045;-66
2021/12/31 06:39:22;;;;;;;3.78;1.83;;;12.90;99.90;;;;;;5048249;28;20033;-66
2021/12/31 06:41:48;;;;;;;3.80;2.00;;;12.90;99.90;;;;;;5046499;28;20630;-69
2021/12/31 06:44:14;;;;;;;4.95;2.63;;;12.90;99.90;;;;;;5030503;28;20044;-66
2021/12/31 06:46:39;;;;;;;4.30;2.30;;;12.90;99.90;;;;;;5027634;28;20112;-68
2021/12/31 06:49:05;;;;;;;5.82;2.47;;;12.90;99.90;;;;;;5028412;28;20404;-67
2021/12/31 06:51:31;;;;;;;7.05;2.60;;;12.90;99.90;;;;;;5036087;28;20083;-66
2021/12/31 06:53:56;;;;;;;5.85;2.22;;;13.00;99.90;;;;;;5033178;28;20040;-67
2021/12/31 06:56:22;;;;;;;7.85;2.33;;;12.90;99.90;;;;;;5016010;28;20038;-66
2021/12/31 06:58:48;;;;;;;5.13;2.28;;;12.80;99.90;;;;;;5044198;28;20041;-68
2021/12/31 07:01:13;;;;;;;4.68;2.08;;;12.80;99.90;;;;;;5037564;28;20033;-66
2021/12/31 07:03:39;;;;;;;5.22;2.17;;;12.80;99.90;;;;;;5044897;28;20040;-67
2021/12/31 07:06:04;;;;;;;4.35;2.00;;;12.80;99.90;;;;;;5036587;28;20045;-68
2021/12/31 07:08:30;;;;;;;6.15;2.17;;;12.80;99.90;;;;;;5035975;28;20037;-67
2021/12/31 07:10:55;;;;;;;8.57;2.10;;;12.80;99.90;;;;;;5040892;28;20048;-68
2021/12/31 07:13:21;;;;;;;5.68;2.45;;;12.80;99.90;;;;;;5047136;28;20061;-67
2021/12/31 07:15:50;;;;;;;6.82;2.38;;;12.70;99.90;;;;;;5044784;28;20037;-68
2021/12/31 07:18:20;;;;;;;3.90;2.30;;;12.60;99.90;;;;;;5042108;28;20036;-68
2021/12/31 07:20:46;;;;;;;7.28;2.25;;;12.50;99.90;;;;;;5030212;28;20046;-66
2021/12/31 07:23:14;;;;;;;3.72;2.53;;;12.50;99.90;;;;;;5043908;28;20170;-67
2021/12/31 07:25:41;;;;;;;6.18;2.55;;;12.50;99.90;;;;;;5031363;28;20041;-68
2021/12/31 07:28:08;;;;;;;4.85;2.25;;;12.50;99.90;;;;;;5012502;28;20041;-66
2021/12/31 07:30:34;;;;;;;7.57;2.63;;;12.40;99.90;;;;;;5029092;28;20037;-66
2021/12/31 07:32:59;;;;;;;4.18;2.30;;;12.50;99.90;;;;;;5036967;28;20047;-67
2021/12/31 07:35:26;;;;;;;5.15;2.50;;;12.50;99.90;;;;;;5045648;28;20081;-67
2021/12/31 07:37:55;;;;;;;6.43;2.65;;;12.40;99.90;;;;;;5036120;28;20043;-67
2021/12/31 07:40:39;;;;;;;4.45;2.45;;;12.40;99.90;;;;;;5029681;28;20053;-67
2021/12/31 07:43:06;;;;;;;4.35;2.38;;;12.50;99.90;;;;;;5039245;28;20044;-65
2021/12/31 07:45:31;;;;;;;5.18;2.38;;;12.50;99.90;;;;;;5036689;28;20081;-66
2021/12/31 07:47:57;;;;;;;3.92;2.05;;;12.50;99.90;;;;;;5021256;28;20178;-68
2021/12/31 07:50:22;;;;;;;6.25;2.42;;;12.40;99.90;;;;;;5042511;28;20095;-70
2021/12/31 07:52:48;;;;;;;5.38;2.88;;;12.40;99.90;;;;;;5043505;28;20082;-68
2021/12/31 07:55:13;;;;;;;7.40;2.30;;;12.50;99.90;;;;;;5043748;28;20556;-67
2021/12/31 07:57:39;;;;;;;4.43;2.45;;;12.50;99.90;;;;;;5042332;28;20037;-66
2021/12/31 08:00:07;;;;;;;5.78;2.63;;;12.50;99.90;;;;;;5025714;28;20362;-69
2021/12/31 08:02:32;;;;;;;4.63;2.40;;;12.40;99.90;;;;;;5042737;28;20040;-67
2021/12/31 08:04:58;;;;;;;5.47;2.60;;;12.40;99.90;;;;;;5036397;28;20033;-68
2021/12/31 08:07:23;;;;;;;8.25;2.67;;;12.40;99.90;;;;;;5033413;28;20082;-65
2021/12/31 08:09:49;;;;;;;3.53;2.50;;;12.40;99.90;;;;;;5036409;28;20075;-67
2021/12/31 08:12:15;;;;;;;4.20;2.42;;;12.40;99.90;;;;;;5035158;28;20041;-66
2021/12/31 08:14:40;;;;;;;6.28;2.35;;;12.40;99.90;;;;;;5028082;28;20047;-69
2021/12/31 08:17:06;;;;;;;5.32;2.47;;;12.40;99.90;;;;;;5032378;28;20052;-67
2021/12/31 08:19:31;;;;;;;5.03;2.20;;;12.30;99.90;;;;;;5013522;28;20068;-67
2021/12/31 08:21:57;;;;;;;5.25;2.50;;;12.30;99.90;;;;;;5044819;28;20128;-70
2021/12/31 08:24:22;;;;;;;6.88;2.38;;;12.30;99.90;;;;;;5033968;28;20065;-67
2021/12/31 08:26:48;;;;;;;3.80;2.40;;;12.40;99.90;;;;;;5031867;28;20131;-69
2021/12/31 08:29:15;;;;;;;5.70;2.33;;;12.50;99.90;;;;;;5039576;28;20076;-67
2021/12/31 08:31:41;;;;;;;7.03;2.40;;;12.50;99.90;;;;;;5030320;28;20042;-68
2021/12/31 08:34:11;;;;;;;5.78;2.58;;;12.50;99.90;;;;;;5042771;28;20131;-67
2021/12/31 08:36:37;;;;;;;6.28;2.30;;;12.60;99.90;;;;;;5039470;28;20042;-68
2021/12/31 08:39:07;;;;;;;7.18;2.53;;;12.70;99.90;;;;;;5031801;28;20048;-68
2021/12/31 08:41:33;;;;;;;3.87;2.10;;;12.70;99.90;;;;;;5032989;28;20457;-66
2021/12/31 08:43:59;;;;;;;7.82;2.45;;;12.60;99.90;;;;;;5016410;28;20291;-67
2021/12/31 08:46:24;;;;;;;4.47;2.35;;;12.60;99.90;;;;;;5047255;28;20041;-67
2021/12/31 08:48:50;;;;;;;10.63;2.30;;;12.50;99.90;;;;;;5048545;28;20033;-66
2021/12/31 08:51:16;;;;;;;4.53;2.33;;;12.50;99.90;;;;;;5052278;28;20033;-67
2021/12/31 08:53:41;;;;;;;6.90;2.20;;;12.50;99.90;;;;;;5040796;28;20485;-68
2021/12/31 08:56:07;;;;;;;7.65;2.58;;;12.60;99.90;;;;;;5041496;28;20038;-68
2021/12/31 08:58:33;;;;;;;4.80;2.17;;;12.70;99.90;;;;;;5044040;28;20140;-67
2021/12/31 09:00:58;;;;;;;6.88;2.55;;;12.70;99.90;;;;;;5043962;28;20047;-67
2021/12/31 09:03:24;;;;;;;4.47;2.35;;;12.80;99.90;;;;;;5050727;28;20037;-67
2021/12/31 09:05:49;;;;;;;6.47;2.42;;;12.80;99.90;;;;;;5040033;28;20049;-68
2021/12/31 09:08:16;;;;;;;7.70;2.58;;;12.90;99.90;;;;;;5028662;28;20037;-66
2021/12/31 09:10:42;;;;;;;3.63;2.30;;;12.90;99.90;;;;;;5046693;28;20095;-67
2021/12/31 09:13:07;;;;;;;5.38;2.72;;;12.90;99.90;;;;;;5028092;28;20057;-66
2021/12/31 09:15:33;;;;;;;6.95;3.20;;;12.90;99.90;;;;;;5030819;28;20049;-68
2021/12/31 09:17:58;;;;;;;5.40;2.50;;;12.90;99.90;;;;;;5030759;28;20124;-67
2021/12/31 09:20:25;;;;;;;4.45;2.55;;;12.90;99.90;;;;;;5031413;28;20107;-66
2021/12/31 09:22:51;;;;;;;5.82;2.50;;;12.90;99.90;;;;;;5039040;28;20160;-68
2021/12/31 09:25:16;;;;;;;6.25;2.40;;;12.90;99.90;;;;;;5031308;28;20482;-67
2021/12/31 09:27:42;;;;;;;5.70;2.38;;;12.90;99.90;;;;;;5032422;28;20029;-67
2021/12/31 09:30:09;;;;;;;6.53;2.40;;;12.90;99.90;;;;;;5038884;28;20461;-67
2021/12/31 09:32:35;;;;;;;7.35;2.60;;;12.90;99.90;;;;;;5040014;28;20044;-68
2021/12/31 09:35:01;;;;;;;5.32;2.60;;;12.90;99.90;;;;;;5015863;28;20037;-66
2021/12/31 09:37:26;;;;;;;3.70;2.22;;;12.90;99.90;;;;;;5027123;28;20064;-67
2021/12/31 09:39:52;;;;;;;5.10;2.38;;;13.00;99.90;;;;;;5014557;28;20082;-70
2021/12/31 09:42:18;;;;;;;5.72;2.63;;;13.00;99.90;;;;;;5020036;28;20045;-66
2021/12/31 09:44:48;;;;;;;5.28;3.42;;;13.00;99.90;;;;;;5050551;28;20698;-68
2021/12/31 09:47:18;;;;;;;5.35;2.90;;;13.00;99.90;;;;;;5030069;28;20045;-67
2021/12/31 09:49:46;;;;;;;5.47;3.37;;;13.00;99.90;;;;;;5050357;28;20040;-67
2021/12/31 09:52:13;;;;;;;5.82;3.00;;;13.00;99.90;;;;;;5038659;28;20361;-68
2021/12/31 09:54:46;;;;;;;4.30;2.75;;;13.10;99.90;;;;;;5037395;28;20044;-67
2021/12/31 09:57:20;;;;;;;5.05;2.95;;;13.10;99.90;;;;;;5045849;28;20910;-67
2021/12/31 09:59:47;;;;;;;8.48;2.83;;;13.10;99.90;;;;;;5034082;28;20045;-66
2021/12/31 10:02:15;;;;;;;5.65;2.75;;;13.10;99.90;;;;;;5046448;28;20109;-67
2021/12/31 10:04:56;;;;;;;8.52;2.58;;;13.10;99.90;;;;;;5037545;28;20055;-66
2021/12/31 10:07:24;;;;;;;7.20;2.95;;;13.00;99.90;;;;;;5030651;28;20544;-68
2021/12/31 10:10:06;;;;;;;5.38;2.38;;;13.00;99.90;;;;;;5051084;28;20047;-67
2021/12/31 10:12:53;;;;;;;8.15;3.67;;;12.90;99.90;;;;;;5032307;28;20120;-67
2021/12/31 10:15:23;;;;;;;6.40;3.38;;;12.90;99.90;;;;;;5031409;28;20033;-69
2021/12/31 10:17:49;;;;;;;7.55;3.80;;;12.80;99.90;;;;;;5032271;28;20044;-67
2021/12/31 10:20:16;;;;;;;5.82;3.42;;;12.80;99.90;;;;;;5030488;28;20045;-68
2021/12/31 10:22:42;;;;;;;7.55;2.83;;;12.70;99.90;;;;;;5035946;28;20033;-70
2021/12/31 10:25:15;;;;;;;4.35;3.00;;;12.70;99.90;;;;;;5043062;28;20055;-67
2021/12/31 10:27:41;;;;;;;6.75;3.05;;;12.70;99.90;;;;;;5045794;28;20036;-67
2021/12/31 10:30:07;;;;;;;7.15;3.03;;;12.80;99.90;;;;;;5035217;28;20107;-68
2021/12/31 10:32:36;;;;;;;5.85;2.97;;;12.80;99.90;;;;;;5040920;28;20436;-69
2021/12/31 10:35:19;;;;;;;6.53;3.20;;;12.90;99.90;;;;;;5027623;28;20034;-68
2021/12/31 10:37:46;;;;;;;4.93;2.55;;;12.90;99.90;;;;;;5030958;28;20108;-66
2021/12/31 10:40:27;;;;;;;7.82;2.90;;;13.00;99.90;;;;;;5011425;28;20051;-67
2021/12/31 10:43:17;;;;;;;4.70;3.10;;;12.90;99.90;;;;;;5039639;28;20045;-67
2021/12/31 10:46:00;;;;;;;6.15;3.50;;;12.90;99.90;;;;;;5044321;28;20037;-69
2021/12/31 10:48:48;;;;;;;8.10;4.25;;;12.90;99.90;;;;;;5025583;28;20045;-69
2021/12/31 10:51:46;;;;;;;8.82;4.10;;;12.90;99.90;;;;;;5047485;28;20037;-68
2021/12/31 10:54:48;;;;;;;6.05;2.85;;;12.80;99.90;;;;;;5024210;28;20051;-70
2021/12/31 10:57:38;;;;;;;6.45;3.20;;;12.90;99.90;;;;;;5018357;28;20777;-68
2021/12/31 11:00:05;;;;;;;5.15;2.95;;;12.80;99.90;;;;;;5040234;28;20044;-67
2021/12/31 11:02:33;;;;;;;5.28;2.78;;;12.90;99.90;;;;;;5020834;28;20104;-67
2021/12/31 11:04:59;;;;;;;5.75;2.67;;;12.90;99.90;;;;;;5046352;28;20052;-67
2021/12/31 11:07:28;;;;;;;4.63;2.70;;;12.90;99.90;;;;;;5046513;28;20041;-67
2021/12/31 11:09:58;;;;;;;5.85;3.20;;;12.80;99.90;;;;;;5045316;28;20041;-67
2021/12/31 11:12:25;;;;;;;6.97;2.72;;;12.70;99.90;;;;;;5027531;28;20042;-66
2021/12/31 11:14:52;;;;;;;7.70;3.53;;;12.70;99.90;;;;;;5040999;28;20111;-68
2021/12/31 11:17:17;;;;;;;5.75;3.60;;;12.70;99.90;;;;;;5036283;28;20065;-66
2021/12/31 11:19:45;;;;;;;7.53;4.78;;;12.60;99.90;;;;;;5038552;28;20070;-67
2021/12/31 11:22:14;;;;;;;13.38;4.70;;;12.50;99.90;;;;;;5035803;28;20033;-66
2021/12/31 11:24:40;;;;;;;10.07;4.78;;;12.30;99.90;;;;;;5039133;28;20033;-66
2021/12/31 11:27:45;;;;;;;8.40;4.40;;;12.00;99.90;;;;;;5049138;28;20095;-66
2021/12/31 11:30:34;;;;;;;7.85;4.32;;;11.90;99.90;;;;;;5044367;28;20052;-69
2021/12/31 11:33:08;;;;;;;7.57;4.22;;;11.80;99.90;;;;;;5023621;28;20097;-68
2021/12/31 11:35:56;;;;;;;8.98;4.55;;;11.70;99.90;;;;;;5042834;28;20052;-66
2021/12/31 11:38:21;;;;;;;8.73;5.45;;;11.70;99.90;;;;;;5048364;28;20044;-66
2021/12/31 11:41:04;;;;;;;11.48;4.50;;;11.60;99.90;;;;;;5040545;28;20036;-65
2021/12/31 11:43:31;;;;;;;9.55;4.68;;;11.60;99.90;;;;;;5035521;28;20149;-67
2021/12/31 11:46:09;;;;;;;9.38;4.75;;;11.60;99.90;;;;;;5010307;28;20077;-67
2021/12/31 11:48:51;;;;;;;9.52;5.05;;;11.60;99.90;;;;;;5012097;28;20365;-66
2021/12/31 11:51:24;;;;;;;8.32;5.05;;;11.60;99.90;;;;;;5038744;28;20041;-67
2021/12/31 11:53:55;;;;;;;10.27;4.72;;;11.60;99.90;;;;;;5034693;28;20124;-67
2021/12/31 11:56:36;;;;;;;7.88;5.38;;;11.50;99.90;;;;;;5032323;28;20044;-67
2021/12/31 11:59:10;;;;;;;8.73;5.18;;;11.50;99.90;;;;;;5039533;28;20419;-67
2021/12/31 12:01:36;;;;;;;12.15;5.55;;;11.50;99.90;;;;;;5038728;28;20075;-66
2021/12/31 12:04:24;;;;;;;10.73;4.80;;;11.50;99.90;;;;;;5032965;28;20081;-69
2021/12/31 12:06:56;;;;;;;7.85;4.72;;;11.50;99.90;;;;;;5032138;28;20083;-67
2021/12/31 12:09:23;;;;;;;9.82;5.00;;;11.50;99.90;;;;;;5016429;28;20055;-67
2021/12/31 12:12:03;;;;;;;9.77;5.30;;;11.50;99.90;;;;;;5034139;28;20056;-67
2021/12/31 12:14:46;;;;;;;10.48;6.03;;;11.50;99.90;;;;;;5041839;28;20103;-66
2021/12/31 12:17:13;;;;;;;10.73;6.60;;;11.40;99.90;;;;;;5035758;28;20033;-64
2021/12/31 12:20:01;;;;;;;15.15;7.18;;;11.40;99.90;;;;;;5038785;28;20068;-65
2021/12/31 12:22:33;;;;;;;16.25;6.60;;;11.40;99.90;;;;;;5033442;28;20051;-64
2021/12/31 12:24:58;;;;;;;20.73;7.68;;;11.30;99.90;;;;;;5030751;28;20041;-67
2021/12/31 12:27:26;;;;;;;18.67;6.97;;;11.30;99.90;;;;;;5014882;28;20041;-63
2021/12/31 12:29:53;;;;;;;16.70;6.45;;;11.30;99.90;;;;;;5042376;28;20051;-65
2021/12/31 12:32:32;;;;;;;14.90;6.78;;;11.30;99.90;;;;;;5032888;28;20045;-63
2021/12/31 12:34:58;;;;;;;17.58;7.38;;;11.40;99.90;;;;;;5023176;28;20048;-63
2021/12/31 12:37:30;;;;;;;14.70;7.32;;;11.30;99.90;;;;;;5035236;28;20447;-65
2021/12/31 12:40:00;;;;;;;18.02;8.02;;;11.30;99.90;;;;;;5037717;28;20038;-63
2021/12/31 12:42:26;;;;;;;19.33;9.00;;;11.40;99.90;;;;;;5030032;28;20144;-64
2021/12/31 12:45:05;;;;;;;18.70;9.07;;;11.40;99.90;;;;;;5045603;28;20387;-66
2021/12/31 12:47:31;;;;;;;17.40;8.40;;;11.20;99.90;;;;;;5040551;28;20045;-64
2021/12/31 12:49:58;;;;;;;16.45;8.70;;;11.30;99.90;;;;;;5046879;28;20037;-64
2021/12/31 12:52:24;;;;;;;16.67;9.35;;;11.30;99.90;;;;;;5048968;28;20091;-63
2021/12/31 12:55:13;;;;;;;20.13;9.70;;;11.30;99.90;;;;;;5033216;28;20049;-65